Terminal Aerodrome Forecast
Issued by NWS Lake Charles, LA

Home | Current Version | Previous Version | Text Only | Print | Product List | Glossary On
Versions: 1 2 3 4 5 6 7 8 9 10 11 12 13 14 15 16
000
FTUS44 KLCH 210500
TAFARA
TAF
KARA 210522Z 2106/2206 VRB04KT P6SM SCT250
      TEMPO 2110/2114 2SM BR SCT080
     FM211400 18005KT P6SM SCT080 SCT250=

USA.gov is the U.S. government's official web portal to all federal, state and local government web resources and services.